Terminal Aerodrome Forecast
Issued by NWS Cleveland, OH

Home | Current Version | Previous Version | Text Only | Print | Product List | Glossary On
Versions: 1 2 3 4 5 6 7 8 9 10 11 12 13 14 15 16 17 18 19
431
FTUS41 KCLE 261120
TAFTOL
TAF
KTOL 261120Z 2612/2712 08010KT P6SM OVC006
     FM261500 08008KT 4SM -RA BR OVC020
      TEMPO 2615/2618 2SM -RA BR OVC012
     FM262100 20008KT P6SM BKN045 OVC120
     FM270200 20004KT 5SM BR SCT008 BKN120
     FM270600 23005KT 2SM BR OVC008=

USA.gov is the U.S. government's official web portal to all federal, state and local government web resources and services.